sensor_id;sensor_type;location;lat;lon;timestamp;temperature;humidity
8485;DHT22;34555;49.34829940;8.43506100;2022-10-31T00:00:15;21.40;94.90
8485;DHT22;34555;49.34829940;8.43506100;2022-10-31T00:02:40;21.30;94.90
8485;DHT22;34555;49.34829940;8.43506100;2022-10-31T00:05:06;21.40;95.00
8485;DHT22;34555;49.34829940;8.43506100;2022-10-31T00:07:32;21.40;95.00
8485;DHT22;34555;49.34829940;8.43506100;2022-10-31T00:09:57;21.40;94.90
8485;DHT22;34555;49.34829940;8.43506100;2022-10-31T00:12:23;21.30;94.90
8485;DHT22;34555;49.34829940;8.43506100;2022-10-31T00:14:48;21.30;94.90
8485;DHT22;34555;49.34829940;8.43506100;2022-10-31T00:17:14;21.40;94.90
8485;DHT22;34555;49.34829940;8.43506100;2022-10-31T00:19:39;21.40;94.90
8485;DHT22;34555;49.34829940;8.43506100;2022-10-31T00:22:05;21.30;94.90
8485;DHT22;34555;49.34829940;8.43506100;2022-10-31T00:24:30;21.30;94.90
8485;DHT22;34555;49.34829940;8.43506100;2022-10-31T00:26:56;21.30;94.90
8485;DHT22;34555;49.34829940;8.43506100;2022-10-31T00:29:21;21.30;94.80
8485;DHT22;34555;49.34829940;8.43506100;2022-10-31T00:31:47;21.30;94.90
8485;DHT22;34555;49.34829940;8.43506100;2022-10-31T00:34:12;21.30;94.90
8485;DHT22;34555;49.34829940;8.43506100;2022-10-31T00:36:38;21.30;94.90
8485;DHT22;34555;49.34829940;8.43506100;2022-10-31T00:39:03;21.30;94.90
8485;DHT22;34555;49.34829940;8.43506100;2022-10-31T00:41:29;21.30;94.90
8485;DHT22;34555;49.34829940;8.43506100;2022-10-31T00:43:55;21.30;94.90
8485;DHT22;34555;49.34829940;8.43506100;2022-10-31T00:46:20;21.30;94.90
8485;DHT22;34555;49.34829940;8.43506100;2022-10-31T00:48:46;21.30;94.90
8485;DHT22;34555;49.34829940;8.43506100;2022-10-31T00:51:11;21.30;94.80
8485;DHT22;34555;49.34829940;8.43506100;2022-10-31T00:53:37;21.30;94.90
8485;DHT22;34555;49.34829940;8.43506100;2022-10-31T00:56:03;21.20;94.80
8485;DHT22;34555;49.34829940;8.43506100;2022-10-31T00:58:29;21.30;94.90
8485;DHT22;34555;49.34829940;8.43506100;2022-10-31T01:00:55;21.20;94.80
8485;DHT22;34555;49.34829940;8.43506100;2022-10-31T01:03:22;21.20;94.80
8485;DHT22;34555;49.34829940;8.43506100;2022-10-31T01:06:04;21.20;94.80
8485;DHT22;34555;49.34829940;8.43506100;2022-10-31T01:08:30;21.20;94.80
8485;DHT22;34555;49.34829940;8.43506100;2022-10-31T01:11:14;21.20;94.80
8485;DHT22;34555;49.34829940;8.43506100;2022-10-31T01:13:40;21.20;94.80
8485;DHT22;34555;49.34829940;8.43506100;2022-10-31T01:16:08;21.20;94.80
8485;DHT22;34555;49.34829940;8.43506100;2022-10-31T01:18:35;21.20;94.80
8485;DHT22;34555;49.34829940;8.43506100;2022-10-31T01:21:06;21.20;94.80
8485;DHT22;34555;49.34829940;8.43506100;2022-10-31T01:23:32;21.20;94.80
8485;DHT22;34555;49.34829940;8.43506100;2022-10-31T01:26:19;21.20;94.70
8485;DHT22;34555;49.34829940;8.43506100;2022-10-31T01:28:48;21.20;94.80
8485;DHT22;34555;49.34829940;8.43506100;2022-10-31T01:31:14;21.20;95.10
8485;DHT22;34555;49.34829940;8.43506100;2022-10-31T01:33:40;21.10;94.70
8485;DHT22;34555;49.34829940;8.43506100;2022-10-31T01:36:23;21.20;94.80
8485;DHT22;34555;49.34829940;8.43506100;2022-10-31T01:38:50;21.20;94.80
8485;DHT22;34555;49.34829940;8.43506100;2022-10-31T01:41:20;21.20;94.80
8485;DHT22;34555;49.34829940;8.43506100;2022-10-31T01:46:41;21.10;94.70
8485;DHT22;34555;49.34829940;8.43506100;2022-10-31T01:49:12;21.10;94.70
8485;DHT22;34555;49.34829940;8.43506100;2022-10-31T01:51:45;21.10;94.70
8485;DHT22;34555;49.34829940;8.43506100;2022-10-31T01:54:14;21.10;94.70
8485;DHT22;34555;49.34829940;8.43506100;2022-10-31T01:56:42;21.10;94.70
8485;DHT22;34555;49.34829940;8.43506100;2022-10-31T01:59:11;21.10;94.70
8485;DHT22;34555;49.34829940;8.43506100;2022-10-31T02:01:39;21.10;94.70
8485;DHT22;34555;49.34829940;8.43506100;2022-10-31T02:04:06;21.10;94.70
8485;DHT22;34555;49.34829940;8.43506100;2022-10-31T02:06:49;21.00;94.70
8485;DHT22;34555;49.34829940;8.43506100;2022-10-31T02:09:17;21.10;94.70
8485;DHT22;34555;49.34829940;8.43506100;2022-10-31T02:11:50;21.10;94.80
8485;DHT22;34555;49.34829940;8.43506100;2022-10-31T02:14:16;21.00;94.70
8485;DHT22;34555;49.34829940;8.43506100;2022-10-31T02:16:42;21.00;94.70
8485;DHT22;34555;49.34829940;8.43506100;2022-10-31T02:19:08;21.00;94.70
8485;DHT22;34555;49.34829940;8.43506100;2022-10-31T02:21:56;21.10;94.70
8485;DHT22;34555;49.34829940;8.43506100;2022-10-31T02:27:16;21.00;94.70
8485;DHT22;34555;49.34829940;8.43506100;2022-10-31T02:32:46;21.00;94.60
8485;DHT22;34555;49.34829940;8.43506100;2022-10-31T02:38:00;21.00;94.70
8485;DHT22;34555;49.34829940;8.43506100;2022-10-31T02:40:35;20.90;94.60
8485;DHT22;34555;49.34829940;8.43506100;2022-10-31T02:43:12;21.00;94.70
8485;DHT22;34555;49.34829940;8.43506100;2022-10-31T02:48:39;20.90;94.60
8485;DHT22;34555;49.34829940;8.43506100;2022-10-31T02:51:07;20.90;94.60
8485;DHT22;34555;49.34829940;8.43506100;2022-10-31T02:53:35;21.00;94.60
8485;DHT22;34555;49.34829940;8.43506100;2022-10-31T02:56:12;20.90;94.60
8485;DHT22;34555;49.34829940;8.43506100;2022-10-31T03:07:08;20.90;94.60
8485;DHT22;34555;49.34829940;8.43506100;2022-10-31T03:12:34;20.90;94.60
8485;DHT22;34555;49.34829940;8.43506100;2022-10-31T03:15:29;20.90;94.60
8485;DHT22;34555;49.34829940;8.43506100;2022-10-31T03:18:00;20.90;94.60
8485;DHT22;34555;49.34829940;8.43506100;2022-10-31T03:20:33;20.90;94.60
8485;DHT22;34555;49.34829940;8.43506100;2022-10-31T03:23:01;20.90;94.60
8485;DHT22;34555;49.34829940;8.43506100;2022-10-31T03:25:28;20.80;94.50
8485;DHT22;34555;49.34829940;8.43506100;2022-10-31T03:27:56;20.90;94.50
8485;DHT22;34555;49.34829940;8.43506100;2022-10-31T03:30:24;20.80;94.50
8485;DHT22;34555;49.34829940;8.43506100;2022-10-31T03:32:52;20.90;94.50
8485;DHT22;34555;49.34829940;8.43506100;2022-10-31T03:35:21;20.80;94.50
8485;DHT22;34555;49.34829940;8.43506100;2022-10-31T03:37:49;20.90;94.50
8485;DHT22;34555;49.34829940;8.43506100;2022-10-31T03:40:19;20.80;94.40
8485;DHT22;34555;49.34829940;8.43506100;2022-10-31T03:42:53;20.80;94.40
8485;DHT22;34555;49.34829940;8.43506100;2022-10-31T03:45:29;20.90;94.50
8485;DHT22;34555;49.34829940;8.43506100;2022-10-31T03:47:55;20.80;94.40
8485;DHT22;34555;49.34829940;8.43506100;2022-10-31T03:50:22;20.80;94.40
8485;DHT22;34555;49.34829940;8.43506100;2022-10-31T03:53:05;20.80;94.40
8485;DHT22;34555;49.34829940;8.43506100;2022-10-31T03:55:40;20.80;94.60
8485;DHT22;34555;49.34829940;8.43506100;2022-10-31T03:58:14;20.80;94.40
8485;DHT22;34555;49.34829940;8.43506100;2022-10-31T04:00:44;20.80;94.40
8485;DHT22;34555;49.34829940;8.43506100;2022-10-31T04:03:24;20.80;94.40
8485;DHT22;34555;49.34829940;8.43506100;2022-10-31T04:05:53;20.80;94.40
8485;DHT22;34555;49.34829940;8.43506100;2022-10-31T04:08:23;20.70;94.30
8485;DHT22;34555;49.34829940;8.43506100;2022-10-31T04:10:51;20.70;94.30
8485;DHT22;34555;49.34829940;8.43506100;2022-10-31T04:13:21;20.70;94.40
8485;DHT22;34555;49.34829940;8.43506100;2022-10-31T04:15:49;20.70;94.30
8485;DHT22;34555;49.34829940;8.43506100;2022-10-31T04:18:17;20.70;94.30
8485;DHT22;34555;49.34829940;8.43506100;2022-10-31T04:20:42;20.70;94.30
8485;DHT22;34555;49.34829940;8.43506100;2022-10-31T04:23:24;20.70;94.30
8485;DHT22;34555;49.34829940;8.43506100;2022-10-31T04:25:49;20.70;94.30
8485;DHT22;34555;49.34829940;8.43506100;2022-10-31T04:28:15;20.70;94.30
8485;DHT22;34555;49.34829940;8.43506100;2022-10-31T04:30:40;20.70;94.30
8485;DHT22;34555;49.34829940;8.43506100;2022-10-31T04:33:06;20.70;94.30
8485;DHT22;34555;49.34829940;8.43506100;2022-10-31T04:35:32;20.70;94.30
8485;DHT22;34555;49.34829940;8.43506100;2022-10-31T04:37:57;20.70;94.30
8485;DHT22;34555;49.34829940;8.43506100;2022-10-31T04:40:23;20.70;94.30
8485;DHT22;34555;49.34829940;8.43506100;2022-10-31T04:42:48;20.70;94.30
8485;DHT22;34555;49.34829940;8.43506100;2022-10-31T04:45:14;20.60;94.30
8485;DHT22;34555;49.34829940;8.43506100;2022-10-31T04:47:39;20.60;94.20
8485;DHT22;34555;49.34829940;8.43506100;2022-10-31T04:50:05;20.60;94.20
8485;DHT22;34555;49.34829940;8.43506100;2022-10-31T04:52:30;20.60;94.20
8485;DHT22;34555;49.34829940;8.43506100;2022-10-31T04:54:56;20.60;94.20
8485;DHT22;34555;49.34829940;8.43506100;2022-10-31T04:57:21;20.60;94.20
8485;DHT22;34555;49.34829940;8.43506100;2022-10-31T04:59:47;20.60;94.20
8485;DHT22;34555;49.34829940;8.43506100;2022-10-31T05:02:12;20.60;94.20
8485;DHT22;34555;49.34829940;8.43506100;2022-10-31T05:04:38;20.60;94.20
8485;DHT22;34555;49.34829940;8.43506100;2022-10-31T05:07:03;20.60;94.20
8485;DHT22;34555;49.34829940;8.43506100;2022-10-31T05:09:29;20.60;94.20
8485;DHT22;34555;49.34829940;8.43506100;2022-10-31T05:11:54;20.60;94.20
8485;DHT22;34555;49.34829940;8.43506100;2022-10-31T05:14:20;20.50;94.20
8485;DHT22;34555;49.34829940;8.43506100;2022-10-31T05:16:46;20.50;94.20
8485;DHT22;34555;49.34829940;8.43506100;2022-10-31T05:19:11;20.60;94.20
8485;DHT22;34555;49.34829940;8.43506100;2022-10-31T05:21:37;20.50;94.10
8485;DHT22;34555;49.34829940;8.43506100;2022-10-31T05:24:03;20.50;94.10
8485;DHT22;34555;49.34829940;8.43506100;2022-10-31T05:26:28;20.50;94.10
8485;DHT22;34555;49.34829940;8.43506100;2022-10-31T05:28:54;20.50;94.10
8485;DHT22;34555;49.34829940;8.43506100;2022-10-31T05:31:19;20.50;94.10
8485;DHT22;34555;49.34829940;8.43506100;2022-10-31T05:33:45;20.50;94.10
8485;DHT22;34555;49.34829940;8.43506100;2022-10-31T05:36:10;20.50;94.10
8485;DHT22;34555;49.34829940;8.43506100;2022-10-31T05:38:36;20.50;94.10
8485;DHT22;34555;49.34829940;8.43506100;2022-10-31T05:41:01;20.50;94.10
8485;DHT22;34555;49.34829940;8.43506100;2022-10-31T05:43:28;20.50;94.10
8485;DHT22;34555;49.34829940;8.43506100;2022-10-31T05:45:54;20.50;94.00
8485;DHT22;34555;49.34829940;8.43506100;2022-10-31T05:48:20;20.50;94.10
8485;DHT22;34555;49.34829940;8.43506100;2022-10-31T05:50:48;20.50;94.10
8485;DHT22;34555;49.34829940;8.43506100;2022-10-31T05:53:13;20.50;94.10
8485;DHT22;34555;49.34829940;8.43506100;2022-10-31T05:55:39;20.50;94.10
8485;DHT22;34555;49.34829940;8.43506100;2022-10-31T05:58:09;20.50;94.10
8485;DHT22;34555;49.34829940;8.43506100;2022-10-31T06:00:35;20.40;94.00
8485;DHT22;34555;49.34829940;8.43506100;2022-10-31T06:03:03;20.40;94.10
8485;DHT22;34555;49.34829940;8.43506100;2022-10-31T06:05:29;20.40;94.10
8485;DHT22;34555;49.34829940;8.43506100;2022-10-31T06:07:55;20.40;94.10
8485;DHT22;34555;49.34829940;8.43506100;2022-10-31T06:10:21;20.40;94.10
8485;DHT22;34555;49.34829940;8.43506100;2022-10-31T06:12:47;20.40;94.10
8485;DHT22;34555;49.34829940;8.43506100;2022-10-31T06:15:13;20.40;94.00
8485;DHT22;34555;49.34829940;8.43506100;2022-10-31T06:17:39;20.40;94.00
8485;DHT22;34555;49.34829940;8.43506100;2022-10-31T06:20:05;20.30;94.00
8485;DHT22;34555;49.34829940;8.43506100;2022-10-31T06:22:31;20.40;94.00
8485;DHT22;34555;49.34829940;8.43506100;2022-10-31T06:24:57;20.40;94.00
8485;DHT22;34555;49.34829940;8.43506100;2022-10-31T06:27:23;20.40;94.00
8485;DHT22;34555;49.34829940;8.43506100;2022-10-31T06:29:48;20.30;94.20
8485;DHT22;34555;49.34829940;8.43506100;2022-10-31T06:32:14;20.40;94.00
8485;DHT22;34555;49.34829940;8.43506100;2022-10-31T06:34:40;20.40;94.00
8485;DHT22;34555;49.34829940;8.43506100;2022-10-31T06:37:07;20.40;94.00
8485;DHT22;34555;49.34829940;8.43506100;2022-10-31T06:39:33;20.30;93.90
8485;DHT22;34555;49.34829940;8.43506100;2022-10-31T06:41:59;20.30;93.80
8485;DHT22;34555;49.34829940;8.43506100;2022-10-31T06:44:24;20.40;93.90
8485;DHT22;34555;49.34829940;8.43506100;2022-10-31T06:46:50;20.40;93.90
8485;DHT22;34555;49.34829940;8.43506100;2022-10-31T06:49:15;20.40;93.80
8485;DHT22;34555;49.34829940;8.43506100;2022-10-31T06:51:41;20.40;93.80
8485;DHT22;34555;49.34829940;8.43506100;2022-10-31T06:54:07;20.40;93.80
8485;DHT22;34555;49.34829940;8.43506100;2022-10-31T06:56:33;20.40;93.70
8485;DHT22;34555;49.34829940;8.43506100;2022-10-31T06:58:58;20.40;93.70
8485;DHT22;34555;49.34829940;8.43506100;2022-10-31T07:01:24;20.40;93.60
8485;DHT22;34555;49.34829940;8.43506100;2022-10-31T07:03:49;20.40;93.50
8485;DHT22;34555;49.34829940;8.43506100;2022-10-31T07:06:15;20.40;93.50
8485;DHT22;34555;49.34829940;8.43506100;2022-10-31T07:08:40;20.50;93.50
8485;DHT22;34555;49.34829940;8.43506100;2022-10-31T07:11:06;20.50;93.50
8485;DHT22;34555;49.34829940;8.43506100;2022-10-31T07:13:31;20.50;93.40
8485;DHT22;34555;49.34829940;8.43506100;2022-10-31T07:16:02;20.50;93.40
8485;DHT22;34555;49.34829940;8.43506100;2022-10-31T07:18:29;20.50;93.40
8485;DHT22;34555;49.34829940;8.43506100;2022-10-31T07:20:55;20.50;93.30
8485;DHT22;34555;49.34829940;8.43506100;2022-10-31T07:23:21;20.50;93.30
8485;DHT22;34555;49.34829940;8.43506100;2022-10-31T07:25:47;20.50;93.30
8485;DHT22;34555;49.34829940;8.43506100;2022-10-31T07:28:12;20.60;93.30
8485;DHT22;34555;49.34829940;8.43506100;2022-10-31T07:30:38;20.50;92.70
8485;DHT22;34555;49.34829940;8.43506100;2022-10-31T07:33:04;20.50;93.10
8485;DHT22;34555;49.34829940;8.43506100;2022-10-31T07:35:31;20.60;93.20
8485;DHT22;34555;49.34829940;8.43506100;2022-10-31T07:37:57;20.60;93.20
8485;DHT22;34555;49.34829940;8.43506100;2022-10-31T07:40:24;20.70;93.30
8485;DHT22;34555;49.34829940;8.43506100;2022-10-31T07:42:51;20.70;93.20
8485;DHT22;34555;49.34829940;8.43506100;2022-10-31T07:45:19;20.80;93.20
8485;DHT22;34555;49.34829940;8.43506100;2022-10-31T07:47:49;20.80;93.30
8485;DHT22;34555;49.34829940;8.43506100;2022-10-31T07:50:26;20.80;93.20
8485;DHT22;34555;49.34829940;8.43506100;2022-10-31T07:53:09;20.80;93.20
8485;DHT22;34555;49.34829940;8.43506100;2022-10-31T07:55:35;20.80;93.20
8485;DHT22;34555;49.34829940;8.43506100;2022-10-31T07:58:06;20.80;93.10
8485;DHT22;34555;49.34829940;8.43506100;2022-10-31T08:00:33;20.80;93.20
8485;DHT22;34555;49.34829940;8.43506100;2022-10-31T08:02:59;20.90;93.30
8485;DHT22;34555;49.34829940;8.43506100;2022-10-31T08:05:25;20.90;93.30
8485;DHT22;34555;49.34829940;8.43506100;2022-10-31T08:07:51;20.90;93.30
8485;DHT22;34555;49.34829940;8.43506100;2022-10-31T08:10:17;20.90;93.20
8485;DHT22;34555;49.34829940;8.43506100;2022-10-31T08:12:42;20.90;93.20
8485;DHT22;34555;49.34829940;8.43506100;2022-10-31T08:15:08;21.00;93.20
8485;DHT22;34555;49.34829940;8.43506100;2022-10-31T08:17:37;20.90;93.20
8485;DHT22;34555;49.34829940;8.43506100;2022-10-31T08:20:04;20.90;93.10
8485;DHT22;34555;49.34829940;8.43506100;2022-10-31T08:22:30;20.90;93.10
8485;DHT22;34555;49.34829940;8.43506100;2022-10-31T08:24:56;21.00;93.20
8485;DHT22;34555;49.34829940;8.43506100;2022-10-31T08:27:21;21.00;93.20
8485;DHT22;34555;49.34829940;8.43506100;2022-10-31T08:29:47;20.90;93.10
8485;DHT22;34555;49.34829940;8.43506100;2022-10-31T08:32:13;20.90;93.20
8485;DHT22;34555;49.34829940;8.43506100;2022-10-31T08:34:38;21.00;93.30
8485;DHT22;34555;49.34829940;8.43506100;2022-10-31T08:37:04;21.00;93.20
8485;DHT22;34555;49.34829940;8.43506100;2022-10-31T08:39:30;21.10;93.20
8485;DHT22;34555;49.34829940;8.43506100;2022-10-31T08:41:55;21.00;93.20
8485;DHT22;34555;49.34829940;8.43506100;2022-10-31T08:44:21;21.00;93.20
8485;DHT22;34555;49.34829940;8.43506100;2022-10-31T08:46:46;21.10;93.20
8485;DHT22;34555;49.34829940;8.43506100;2022-10-31T08:49:12;21.10;93.10
8485;DHT22;34555;49.34829940;8.43506100;2022-10-31T08:51:37;21.10;93.10
8485;DHT22;34555;49.34829940;8.43506100;2022-10-31T08:54:03;21.10;93.20
8485;DHT22;34555;49.34829940;8.43506100;2022-10-31T08:56:28;21.10;93.20
8485;DHT22;34555;49.34829940;8.43506100;2022-10-31T08:58:54;21.10;93.00
8485;DHT22;34555;49.34829940;8.43506100;2022-10-31T09:01:20;21.10;92.90
8485;DHT22;34555;49.34829940;8.43506100;2022-10-31T09:03:45;20.90;91.50
8485;DHT22;34555;49.34829940;8.43506100;2022-10-31T09:06:11;20.90;91.90
8485;DHT22;34555;49.34829940;8.43506100;2022-10-31T09:08:36;20.90;92.00
8485;DHT22;34555;49.34829940;8.43506100;2022-10-31T09:11:02;20.90;92.10
8485;DHT22;34555;49.34829940;8.43506100;2022-10-31T09:13:28;21.00;92.10
8485;DHT22;34555;49.34829940;8.43506100;2022-10-31T09:15:56;21.00;92.10
8485;DHT22;34555;49.34829940;8.43506100;2022-10-31T09:18:23;21.00;92.10
8485;DHT22;34555;49.34829940;8.43506100;2022-10-31T09:20:49;21.10;92.20
8485;DHT22;34555;49.34829940;8.43506100;2022-10-31T09:23:17;21.00;92.10
8485;DHT22;34555;49.34829940;8.43506100;2022-10-31T09:25:44;21.10;92.20
8485;DHT22;34555;49.34829940;8.43506100;2022-10-31T09:28:12;21.10;92.20
8485;DHT22;34555;49.34829940;8.43506100;2022-10-31T09:30:38;21.10;92.20
8485;DHT22;34555;49.34829940;8.43506100;2022-10-31T09:33:06;21.20;92.20
8485;DHT22;34555;49.34829940;8.43506100;2022-10-31T09:35:32;21.10;92.20
8485;DHT22;34555;49.34829940;8.43506100;2022-10-31T09:38:00;21.10;92.20
8485;DHT22;34555;49.34829940;8.43506100;2022-10-31T09:40:32;21.10;92.10
8485;DHT22;34555;49.34829940;8.43506100;2022-10-31T09:43:30;21.00;91.50
8485;DHT22;34555;49.34829940;8.43506100;2022-10-31T09:46:10;21.10;91.80
8485;DHT22;34555;49.34829940;8.43506100;2022-10-31T09:51:28;21.20;92.10
8485;DHT22;34555;49.34829940;8.43506100;2022-10-31T09:54:06;21.30;92.20
8485;DHT22;34555;49.34829940;8.43506100;2022-10-31T09:56:34;21.30;92.20
8485;DHT22;34555;49.34829940;8.43506100;2022-10-31T09:59:02;21.30;92.20
8485;DHT22;34555;49.34829940;8.43506100;2022-10-31T10:06:52;21.10;91.90
8485;DHT22;34555;49.34829940;8.43506100;2022-10-31T10:09:21;21.10;92.20
8485;DHT22;34555;49.34829940;8.43506100;2022-10-31T10:14:43;21.10;92.20
8485;DHT22;34555;49.34829940;8.43506100;2022-10-31T10:20:05;21.30;92.20
8485;DHT22;34555;49.34829940;8.43506100;2022-10-31T10:22:47;21.10;91.30
8485;DHT22;34555;49.34829940;8.43506100;2022-10-31T10:25:20;21.00;92.10
8485;DHT22;34555;49.34829940;8.43506100;2022-10-31T10:27:54;20.90;92.60
8485;DHT22;34555;49.34829940;8.43506100;2022-10-31T10:30:40;21.00;92.70
8485;DHT22;34555;49.34829940;8.43506100;2022-10-31T10:33:12;21.00;92.60
8485;DHT22;34555;49.34829940;8.43506100;2022-10-31T10:35:52;21.00;92.30
8485;DHT22;34555;49.34829940;8.43506100;2022-10-31T10:38:27;21.00;92.40
8485;DHT22;34555;49.34829940;8.43506100;2022-10-31T10:40:54;21.10;92.70
8485;DHT22;34555;49.34829940;8.43506100;2022-10-31T10:43:36;21.10;92.60
8485;DHT22;34555;49.34829940;8.43506100;2022-10-31T10:49:14;21.10;92.60
8485;DHT22;34555;49.34829940;8.43506100;2022-10-31T10:59:37;21.20;92.80
8485;DHT22;34555;49.34829940;8.43506100;2022-10-31T11:02:03;21.20;92.80
8485;DHT22;34555;49.34829940;8.43506100;2022-10-31T11:04:36;21.20;93.00
8485;DHT22;34555;49.34829940;8.43506100;2022-10-31T11:07:10;21.20;92.80
8485;DHT22;34555;49.34829940;8.43506100;2022-10-31T11:09:36;21.20;92.90
8485;DHT22;34555;49.34829940;8.43506100;2022-10-31T11:12:29;21.20;92.60
8485;DHT22;34555;49.34829940;8.43506100;2022-10-31T11:14:58;21.20;92.80
8485;DHT22;34555;49.34829940;8.43506100;2022-10-31T11:17:41;21.30;93.00
8485;DHT22;34555;49.34829940;8.43506100;2022-10-31T11:22:45;21.20;93.00
8485;DHT22;34555;49.34829940;8.43506100;2022-10-31T11:27:46;21.20;93.20
8485;DHT22;34555;49.34829940;8.43506100;2022-10-31T11:30:13;21.20;93.20
8485;DHT22;34555;49.34829940;8.43506100;2022-10-31T11:32:48;21.20;93.20
8485;DHT22;34555;49.34829940;8.43506100;2022-10-31T11:35:17;21.20;93.30
8485;DHT22;34555;49.34829940;8.43506100;2022-10-31T11:37:45;21.20;93.30
8485;DHT22;34555;49.34829940;8.43506100;2022-10-31T11:40:22;21.20;93.30
8485;DHT22;34555;49.34829940;8.43506100;2022-10-31T11:42:51;21.20;93.30
8485;DHT22;34555;49.34829940;8.43506100;2022-10-31T11:45:27;21.20;93.30
8485;DHT22;34555;49.34829940;8.43506100;2022-10-31T11:47:55;21.20;93.40
8485;DHT22;34555;49.34829940;8.43506100;2022-10-31T11:50:40;21.20;93.40
8485;DHT22;34555;49.34829940;8.43506100;2022-10-31T11:53:16;21.20;93.40
8485;DHT22;34555;49.34829940;8.43506100;2022-10-31T11:55:42;21.20;93.40
8485;DHT22;34555;49.34829940;8.43506100;2022-10-31T11:58:24;21.20;93.40
8485;DHT22;34555;49.34829940;8.43506100;2022-10-31T12:00:53;21.20;93.40
8485;DHT22;34555;49.34829940;8.43506100;2022-10-31T12:05:52;21.20;93.40
8485;DHT22;34555;49.34829940;8.43506100;2022-10-31T12:08:19;21.30;93.40
8485;DHT22;34555;49.34829940;8.43506100;2022-10-31T12:14:13;21.20;93.60
8485;DHT22;34555;49.34829940;8.43506100;2022-10-31T12:17:05;21.20;93.60
8485;DHT22;34555;49.34829940;8.43506100;2022-10-31T12:19:42;21.20;93.70
8485;DHT22;34555;49.34829940;8.43506100;2022-10-31T12:25:24;21.30;93.80
8485;DHT22;34555;49.34829940;8.43506100;2022-10-31T12:28:16;21.20;93.80
8485;DHT22;34555;49.34829940;8.43506100;2022-10-31T12:31:10;21.20;93.80
8485;DHT22;34555;49.34829940;8.43506100;2022-10-31T12:33:41;21.30;93.80
8485;DHT22;34555;49.34829940;8.43506100;2022-10-31T12:36:24;21.30;93.80
8485;DHT22;34555;49.34829940;8.43506100;2022-10-31T12:39:10;21.30;93.80
8485;DHT22;34555;49.34829940;8.43506100;2022-10-31T12:44:30;21.20;93.40
8485;DHT22;34555;49.34829940;8.43506100;2022-10-31T12:49:45;21.20;93.80
8485;DHT22;34555;49.34829940;8.43506100;2022-10-31T12:57:45;21.20;94.00
8485;DHT22;34555;49.34829940;8.43506100;2022-10-31T13:00:17;21.20;94.00
8485;DHT22;34555;49.34829940;8.43506100;2022-10-31T13:03:20;21.10;94.00
8485;DHT22;34555;49.34829940;8.43506100;2022-10-31T13:05:46;21.20;94.00
8485;DHT22;34555;49.34829940;8.43506100;2022-10-31T13:08:44;21.20;94.00
8485;DHT22;34555;49.34829940;8.43506100;2022-10-31T13:11:16;21.10;94.00
8485;DHT22;34555;49.34829940;8.43506100;2022-10-31T13:16:27;21.10;93.90
8485;DHT22;34555;49.34829940;8.43506100;2022-10-31T13:19:16;21.10;93.70
8485;DHT22;34555;49.34829940;8.43506100;2022-10-31T13:24:44;21.10;93.60
8485;DHT22;34555;49.34829940;8.43506100;2022-10-31T13:27:21;21.10;93.60
8485;DHT22;34555;49.34829940;8.43506100;2022-10-31T13:32:36;21.10;93.40
8485;DHT22;34555;49.34829940;8.43506100;2022-10-31T13:35:04;21.20;93.40
8485;DHT22;34555;49.34829940;8.43506100;2022-10-31T13:37:41;21.20;93.30
8485;DHT22;34555;49.34829940;8.43506100;2022-10-31T13:40:54;21.30;93.30
8485;DHT22;34555;49.34829940;8.43506100;2022-10-31T13:48:51;21.40;93.10
8485;DHT22;34555;49.34829940;8.43506100;2022-10-31T13:51:25;21.40;93.20
8485;DHT22;34555;49.34829940;8.43506100;2022-10-31T13:53:57;21.40;93.30
8485;DHT22;34555;49.34829940;8.43506100;2022-10-31T13:56:27;21.40;93.30
8485;DHT22;34555;49.34829940;8.43506100;2022-10-31T14:01:23;21.40;93.30
8485;DHT22;34555;49.34829940;8.43506100;2022-10-31T14:03:59;21.40;93.30
8485;DHT22;34555;49.34829940;8.43506100;2022-10-31T14:07:05;21.40;93.30
8485;DHT22;34555;49.34829940;8.43506100;2022-10-31T14:09:35;21.40;93.30
8485;DHT22;34555;49.34829940;8.43506100;2022-10-31T14:15:18;21.40;93.30
8485;DHT22;34555;49.34829940;8.43506100;2022-10-31T14:18:17;21.40;93.30
8485;DHT22;34555;49.34829940;8.43506100;2022-10-31T14:20:46;21.40;93.40
8485;DHT22;34555;49.34829940;8.43506100;2022-10-31T14:28:41;21.40;93.50
8485;DHT22;34555;49.34829940;8.43506100;2022-10-31T14:31:44;21.40;93.60
8485;DHT22;34555;49.34829940;8.43506100;2022-10-31T14:34:34;21.40;93.60
8485;DHT22;34555;49.34829940;8.43506100;2022-10-31T14:42:28;21.40;93.70
8485;DHT22;34555;49.34829940;8.43506100;2022-10-31T14:45:18;21.40;93.80
8485;DHT22;34555;49.34829940;8.43506100;2022-10-31T14:48:03;21.40;93.50
8485;DHT22;34555;49.34829940;8.43506100;2022-10-31T14:53:04;21.40;93.60
8485;DHT22;34555;49.34829940;8.43506100;2022-10-31T14:55:31;21.40;93.70
8485;DHT22;34555;49.34829940;8.43506100;2022-10-31T14:58:00;21.40;93.80
8485;DHT22;34555;49.34829940;8.43506100;2022-10-31T15:00:28;21.40;93.80
8485;DHT22;34555;49.34829940;8.43506100;2022-10-31T15:03:22;21.40;93.80
8485;DHT22;34555;49.34829940;8.43506100;2022-10-31T15:05:53;21.40;93.90
8485;DHT22;34555;49.34829940;8.43506100;2022-10-31T15:10:56;21.40;93.90
8485;DHT22;34555;49.34829940;8.43506100;2022-10-31T15:13:22;21.40;94.00
8485;DHT22;34555;49.34829940;8.43506100;2022-10-31T15:15:49;21.40;94.00
8485;DHT22;34555;49.34829940;8.43506100;2022-10-31T15:18:18;21.40;94.00
8485;DHT22;34555;49.34829940;8.43506100;2022-10-31T15:20:45;21.40;94.10
8485;DHT22;34555;49.34829940;8.43506100;2022-10-31T15:23:23;21.50;94.10
8485;DHT22;34555;49.34829940;8.43506100;2022-10-31T15:25:50;21.40;94.20
8485;DHT22;34555;49.34829940;8.43506100;2022-10-31T15:28:22;21.40;94.00
8485;DHT22;34555;49.34829940;8.43506100;2022-10-31T15:30:53;21.40;94.10
8485;DHT22;34555;49.34829940;8.43506100;2022-10-31T15:33:24;21.40;94.10
8485;DHT22;34555;49.34829940;8.43506100;2022-10-31T15:36:01;21.40;94.20
8485;DHT22;34555;49.34829940;8.43506100;2022-10-31T15:38:28;21.30;94.20
8485;DHT22;34555;49.34829940;8.43506100;2022-10-31T15:41:20;21.30;94.10